Time,TemperatureF,DewpointF,PressureIn,WindDirection,WindDirectionDegrees,WindSpeedMPH,WindSpeedGustMPH,Humidity,HourlyPrecipIn,Conditions,Clouds,dailyrainin,SoftwareType,DateUTC
2013-06-29 00:00:00,64.0,61.0,29.60,WNW,293,1.0,2.0,90,0.00,,,0.00,Wunderground v.1.15,2013-06-29 04:00:00,
2013-06-29 00:05:00,64.1,61.1,29.60,WNW,287,1.0,3.0,90,0.00,,,0.00,Wunderground v.1.15,2013-06-29 04:05:00,
2013-06-29 00:10:00,64.4,61.1,29.60,NW,304,2.0,2.0,89,0.00,,,0.00,Wunderground v.1.15,2013-06-29 04:10:00,
2013-06-29 00:15:00,64.4,61.1,29.60,WNW,289,2.0,2.0,89,0.00,,,0.00,Wunderground v.1.15,2013-06-29 04:15:00,
2013-06-29 00:20:00,64.4,61.1,29.60,WNW,287,2.0,3.0,89,0.00,,,0.00,Wunderground v.1.15,2013-06-29 04:20:00,
2013-06-29 00:25:00,64.3,61.0,29.60,WNW,289,2.0,3.0,89,0.00,,,0.00,Wunderground v.1.15,2013-06-29 04:25:00,
2013-06-29 00:30:00,64.3,61.0,29.60,West,278,3.0,3.0,89,0.00,,,0.00,Wunderground v.1.15,2013-06-29 04:30:00,
2013-06-29 00:35:00,64.2,60.9,29.60,WNW,284,3.0,3.0,89,0.00,,,0.00,Wunderground v.1.15,2013-06-29 04:35:00,
2013-06-29 00:40:00,64.1,60.8,29.60,NNW,338,2.0,2.0,89,0.00,,,0.00,Wunderground v.1.15,2013-06-29 04:40:00,
2013-06-29 00:45:00,63.8,60.8,29.59,WNW,283,1.0,2.0,90,0.00,,,0.00,Wunderground v.1.15,2013-06-29 04:45:00,
2013-06-29 00:50:00,63.8,60.8,29.59,WNW,295,2.0,2.0,90,0.00,,,0.00,Wunderground v.1.15,2013-06-29 04:50:00,
2013-06-29 01:00:00,63.4,60.4,29.59,NNW,338,1.0,2.0,90,0.00,,,0.00,Wunderground v.1.15,2013-06-29 05:00:00,
2013-06-29 01:05:00,63.3,60.6,29.59,NNW,328,2.0,2.0,91,0.00,,,0.00,Wunderground v.1.15,2013-06-29 05:05:00,
2013-06-29 01:10:00,63.3,60.6,29.59,North,352,1.0,1.0,91,0.00,,,0.00,Wunderground v.1.15,2013-06-29 05:10:00,
2013-06-29 01:15:00,63.1,60.4,29.59,WNW,293,1.0,1.0,91,0.00,,,0.00,Wunderground v.1.15,2013-06-29 05:15:00,
2013-06-29 01:20:00,62.8,60.4,29.59,North,359,1.0,1.0,92,0.00,,,0.00,Wunderground v.1.15,2013-06-29 05:20:00,
2013-06-29 01:25:00,62.7,60.3,29.59,North,354,1.0,1.0,92,0.00,,,0.00,Wunderground v.1.15,2013-06-29 05:25:00,
2013-06-29 01:30:00,62.5,60.1,29.59,North,10,1.0,1.0,92,0.00,,,0.00,Wunderground v.1.15,2013-06-29 05:30:00,
2013-06-29 01:35:00,62.4,60.3,29.59,NNW,335,0.0,1.0,93,0.00,,,0.00,Wunderground v.1.15,2013-06-29 05:35:00,
2013-06-29 01:40:00,62.4,60.3,29.59,NNW,343,0.0,1.0,93,0.00,,,0.00,Wunderground v.1.15,2013-06-29 05:40:00,
2013-06-29 01:45:00,62.3,60.2,29.58,NNW,343,0.0,1.0,93,0.00,,,0.00,Wunderground v.1.15,2013-06-29 05:45:00,
2013-06-29 01:50:00,62.3,60.2,29.58,NW,322,1.0,1.0,93,0.00,,,0.00,Wunderground v.1.15,2013-06-29 05:50:00,
2013-06-29 02:00:00,62.2,60.2,29.58,NW,304,0.0,0.0,93,0.00,,,0.00,Wunderground v.1.15,2013-06-29 06:00:00,
2013-06-29 02:10:00,61.9,59.9,29.58,NW,304,0.0,0.0,93,0.00,,,0.00,Wunderground v.1.15,2013-06-29 06:10:00,
2013-06-29 02:15:00,61.9,60.2,29.58,NW,304,0.0,0.0,94,0.00,,,0.00,Wunderground v.1.15,2013-06-29 06:15:00,
2013-06-29 02:20:00,62.0,60.3,29.58,NW,305,0.0,0.0,94,0.00,,,0.00,Wunderground v.1.15,2013-06-29 06:20:00,
2013-06-29 02:25:00,61.9,60.2,29.58,NW,304,0.0,0.0,94,0.00,,,0.00,Wunderground v.1.15,2013-06-29 06:25:00,
2013-06-29 02:35:00,61.4,59.7,29.58,NW,304,0.0,1.0,94,0.00,,,0.00,Wunderground v.1.15,2013-06-29 06:35:00,
2013-06-29 02:40:00,61.2,59.8,29.58,NW,305,0.0,0.0,95,0.00,,,0.00,Wunderground v.1.15,2013-06-29 06:40:00,
2013-06-29 02:45:00,60.9,59.5,29.58,NW,305,0.0,0.0,95,0.00,,,0.00,Wunderground v.1.15,2013-06-29 06:45:00,
2013-06-29 02:50:00,60.8,59.7,29.58,NW,304,0.0,0.0,96,0.00,,,0.00,Wunderground v.1.15,2013-06-29 06:50:00,
2013-06-29 02:55:00,60.7,59.6,29.58,NW,305,0.0,0.0,96,0.00,,,0.00,Wunderground v.1.15,2013-06-29 06:55:00,
2013-06-29 03:00:00,60.7,59.6,29.58,NW,305,0.0,0.0,96,0.00,,,0.00,Wunderground v.1.15,2013-06-29 07:00:00,
2013-06-29 03:10:00,60.5,59.6,29.58,NW,323,0.0,0.0,97,0.00,,,0.00,Wunderground v.1.15,2013-06-29 07:10:00,
2013-06-29 03:15:00,60.4,59.5,29.58,NW,325,0.0,0.0,97,0.00,,,0.00,Wunderground v.1.15,2013-06-29 07:15:00,
2013-06-29 03:20:00,60.2,59.1,29.58,NW,325,0.0,0.0,96,0.00,,,0.00,Wunderground v.1.15,2013-06-29 07:20:00,
2013-06-29 03:25:00,59.9,58.8,29.58,NW,323,0.0,0.0,96,0.00,,,0.00,Wunderground v.1.15,2013-06-29 07:25:00,
2013-06-29 03:30:00,59.7,58.8,29.58,NW,323,0.0,0.0,97,0.00,,,0.00,Wunderground v.1.15,2013-06-29 07:30:00,
2013-06-29 03:40:00,59.6,58.7,29.58,NW,323,0.0,0.0,97,0.00,,,0.00,Wunderground v.1.15,2013-06-29 07:40:00,
2013-06-29 03:45:00,59.7,58.8,29.58,NW,323,0.0,0.0,97,0.00,,,0.00,Wunderground v.1.15,2013-06-29 07:45:00,
2013-06-29 03:50:00,59.7,59.1,29.58,NNW,340,0.0,0.0,98,0.00,,,0.00,Wunderground v.1.15,2013-06-29 07:50:00,
2013-06-29 03:55:00,59.7,59.1,29.58,North,354,0.0,0.0,98,0.00,,,0.00,Wunderground v.1.15,2013-06-29 07:55:00,
2013-06-29 04:00:00,59.7,58.8,29.58,North,354,0.0,0.0,97,0.00,,,0.00,Wunderground v.1.15,2013-06-29 08:00:00,
2013-06-29 04:10:00,59.4,58.5,29.58,North,354,0.0,0.0,97,0.00,,,0.00,Wunderground v.1.15,2013-06-29 08:10:00,
2013-06-29 04:15:00,59.3,58.7,29.58,North,354,0.0,1.0,98,0.00,,,0.00,Wunderground v.1.15,2013-06-29 08:15:00,
2013-06-29 04:20:00,59.6,59.0,29.58,NNW,335,1.0,1.0,98,0.00,,,0.00,Wunderground v.1.15,2013-06-29 08:20:00,
2013-06-29 04:25:00,59.6,59.0,29.58,NNW,333,1.0,1.0,98,0.00,,,0.00,Wunderground v.1.15,2013-06-29 08:25:00,
2013-06-29 04:30:00,59.7,59.1,29.58,NNW,333,1.0,1.0,98,0.00,,,0.00,Wunderground v.1.15,2013-06-29 08:30:00,
2013-06-29 04:35:00,59.7,59.1,29.57,NNW,333,0.0,1.0,98,0.00,,,0.00,Wunderground v.1.15,2013-06-29 08:35:00,
2013-06-29 04:45:00,59.1,58.2,29.58,NNW,333,0.0,0.0,97,0.00,,,0.00,Wunderground v.1.15,2013-06-29 08:45:00,
2013-06-29 04:50:00,59.0,58.4,29.58,NW,310,1.0,1.0,98,0.00,,,0.00,Wunderground v.1.15,2013-06-29 08:50:00,
2013-06-29 04:55:00,59.0,58.4,29.58,NW,311,0.0,1.0,98,0.00,,,0.00,Wunderground v.1.15,2013-06-29 08:55:00,
2013-06-29 05:00:00,59.2,58.6,29.58,NW,310,0.0,0.0,98,0.00,,,0.00,Wunderground v.1.15,2013-06-29 09:00:00,
2013-06-29 05:10:00,59.1,58.5,29.58,NW,310,0.0,0.0,98,0.00,,,0.00,Wunderground v.1.15,2013-06-29 09:10:00,
2013-06-29 05:15:00,58.9,58.3,29.58,NW,310,0.0,0.0,98,0.00,,,0.00,Wunderground v.1.15,2013-06-29 09:15:00,
2013-06-29 05:20:00,58.7,58.1,29.58,NW,311,0.0,0.0,98,0.00,,,0.00,Wunderground v.1.15,2013-06-29 09:20:00,
2013-06-29 05:25:00,58.8,58.2,29.58,NW,310,0.0,0.0,98,0.00,,,0.00,Wunderground v.1.15,2013-06-29 09:25:00,
2013-06-29 05:30:00,58.7,58.1,29.59,NW,311,0.0,0.0,98,0.00,,,0.00,Wunderground v.1.15,2013-06-29 09:30:00,
2013-06-29 05:35:00,58.7,58.1,29.59,NW,310,0.0,0.0,98,0.00,,,0.00,Wunderground v.1.15,2013-06-29 09:35:00,
2013-06-29 05:45:00,58.4,57.8,29.59,WNW,286,0.0,1.0,98,0.00,,,0.00,Wunderground v.1.15,2013-06-29 09:45:00,
2013-06-29 05:50:00,58.6,58.0,29.59,NNW,340,1.0,1.0,98,0.00,,,0.00,Wunderground v.1.15,2013-06-29 09:50:00,
2013-06-29 05:55:00,58.8,58.2,29.59,NW,313,1.0,1.0,98,0.00,,,0.00,Wunderground v.1.15,2013-06-29 09:55:00,
2013-06-29 06:00:00,58.8,58.2,29.59,WNW,302,1.0,2.0,98,0.00,,,0.00,Wunderground v.1.15,2013-06-29 10:00:00,
2013-06-29 06:10:00,59.1,58.8,29.60,WNW,302,2.0,2.0,99,0.00,,,0.00,Wunderground v.1.15,2013-06-29 10:10:00,
2013-06-29 06:20:00,59.7,59.4,29.60,WNW,297,2.0,2.0,99,0.00,,,0.00,Wunderground v.1.15,2013-06-29 10:20:00,
2013-06-29 06:25:00,59.9,59.6,29.60,WNW,294,2.0,2.0,99,0.00,,,0.00,Wunderground v.1.15,2013-06-29 10:25:00,
2013-06-29 06:30:00,60.1,59.8,29.60,NW,311,2.0,2.0,99,0.00,,,0.00,Wunderground v.1.15,2013-06-29 10:30:00,
2013-06-29 06:35:00,60.3,60.0,29.60,NW,310,1.0,2.0,99,0.00,,,0.00,Wunderground v.1.15,2013-06-29 10:35:00,
2013-06-29 06:40:00,60.4,60.1,29.60,NW,319,2.0,2.0,99,0.00,,,0.00,Wunderground v.1.15,2013-06-29 10:40:00,
2013-06-29 06:50:00,60.7,60.4,29.61,NNW,347,2.0,2.0,99,0.00,,,0.00,Wunderground v.1.15,2013-06-29 10:50:00,
2013-06-29 06:55:00,60.8,60.5,29.60,NNW,330,1.0,2.0,99,0.00,,,0.00,Wunderground v.1.15,2013-06-29 10:55:00,
2013-06-29 07:00:00,61.0,60.7,29.60,NW,319,1.0,1.0,99,0.00,,,0.00,Wunderground v.1.15,2013-06-29 11:00:00,
2013-06-29 07:10:00,61.2,60.9,29.61,NW,310,1.0,1.0,99,0.00,,,0.00,Wunderground v.1.15,2013-06-29 11:10:00,
2013-06-29 07:15:00,61.3,61.0,29.61,North,354,1.0,2.0,99,0.00,,,0.00,Wunderground v.1.15,2013-06-29 11:15:00,
2013-06-29 07:25:00,61.6,61.3,29.61,NNW,333,2.0,2.0,99,0.00,,,0.00,Wunderground v.1.15,2013-06-29 11:25:00,
2013-06-29 07:30:00,61.8,61.5,29.61,North,360,1.0,1.0,99,0.00,,,0.00,Wunderground v.1.15,2013-06-29 11:30:00,
2013-06-29 07:35:00,61.8,61.5,29.61,North,6,1.0,3.0,99,0.00,,,0.00,Wunderground v.1.15,2013-06-29 11:35:00,
2013-06-29 07:40:00,61.8,61.5,29.61,NW,322,3.0,4.0,99,0.00,,,0.00,Wunderground v.1.15,2013-06-29 11:40:00,
2013-06-29 07:45:00,61.9,61.6,29.61,North,359,3.0,4.0,99,0.00,,,0.00,Wunderground v.1.15,2013-06-29 11:45:00,
2013-06-29 07:55:00,61.9,61.6,29.61,NE,45,3.0,3.0,99,0.00,,,0.00,Wunderground v.1.15,2013-06-29 11:55:00,
2013-06-29 08:00:00,61.9,61.6,29.61,NE,41,3.0,3.0,99,0.00,,,0.00,Wunderground v.1.15,2013-06-29 12:00:00,
2013-06-29 08:10:00,62.0,61.7,29.61,NE,50,3.0,3.0,99,0.00,,,0.00,Wunderground v.1.15,2013-06-29 12:10:00,
2013-06-29 08:15:00,62.3,62.0,29.61,ENE,70,3.0,3.0,99,0.00,,,0.00,Wunderground v.1.15,2013-06-29 12:15:00,
2013-06-29 08:20:00,62.2,61.9,29.62,ENE,67,3.0,4.0,99,0.00,,,0.00,Wunderground v.1.15,2013-06-29 12:20:00,
2013-06-29 08:30:00,62.3,61.7,29.62,NNE,27,4.0,4.0,98,0.00,,,0.00,Wunderground v.1.15,2013-06-29 12:30:00,
2013-06-29 08:35:00,62.4,61.8,29.62,NE,35,3.0,4.0,98,0.00,,,0.00,Wunderground v.1.15,2013-06-29 12:35:00,
2013-06-29 08:40:00,62.5,61.9,29.61,NE,46,3.0,3.0,98,0.00,,,0.00,Wunderground v.1.15,2013-06-29 12:40:00,
2013-06-29 08:45:00,62.6,62.0,29.62,ENE,60,3.0,5.0,98,0.00,,,0.00,Wunderground v.1.15,2013-06-29 12:45:00,
2013-06-29 08:50:00,62.7,61.8,29.61,ENE,60,4.0,5.0,97,0.00,,,0.00,Wunderground v.1.15,2013-06-29 12:50:00,
2013-06-29 08:55:00,62.8,61.9,29.62,NE,45,4.0,5.0,97,0.00,,,0.00,Wunderground v.1.15,2013-06-29 12:55:00,
2013-06-29 09:00:00,62.9,62.0,29.62,NE,53,3.0,3.0,97,0.00,,,0.00,Wunderground v.1.15,2013-06-29 13:00:00,
2013-06-29 09:10:00,62.8,61.6,29.62,ENE,76,3.0,4.0,96,0.00,,,0.00,Wunderground v.1.15,2013-06-29 13:10:00,
2013-06-29 09:15:00,62.9,61.7,29.62,East,99,3.0,4.0,96,0.00,,,0.00,Wunderground v.1.15,2013-06-29 13:15:00,
2013-06-29 09:20:00,63.1,61.6,29.63,East,79,3.0,4.0,95,0.00,,,0.00,Wunderground v.1.15,2013-06-29 13:20:00,
2013-06-29 09:30:00,63.3,61.8,29.63,NE,55,3.0,3.0,95,0.00,,,0.00,Wunderground v.1.15,2013-06-29 13:30:00,
2013-06-29 09:35:00,63.4,61.9,29.63,ENE,58,3.0,3.0,95,0.00,,,0.00,Wunderground v.1.15,2013-06-29 13:35:00,
2013-06-29 09:40:00,63.4,61.9,29.63,ESE,107,3.0,4.0,95,0.00,,,0.00,Wunderground v.1.15,2013-06-29 13:40:00,
2013-06-29 09:45:00,63.4,61.9,29.63,ENE,78,3.0,4.0,95,0.00,,,0.00,Wunderground v.1.15,2013-06-29 13:45:00,
2013-06-29 09:50:00,63.5,62.0,29.63,ESE,120,2.0,2.0,95,0.00,,,0.00,Wunderground v.1.15,2013-06-29 13:50:00,
2013-06-29 09:55:00,63.8,62.0,29.63,East,79,2.0,2.0,94,0.00,,,0.00,Wunderground v.1.15,2013-06-29 13:55:00,
2013-06-29 10:00:00,64.0,62.2,29.63,ENE,70,2.0,2.0,94,0.00,,,0.00,Wunderground v.1.15,2013-06-29 14:00:00,
2013-06-29 10:10:00,64.3,62.5,29.63,ESE,113,3.0,3.0,94,0.00,,,0.00,Wunderground v.1.15,2013-06-29 14:10:00,
2013-06-29 10:15:00,64.4,62.3,29.63,ENE,73,3.0,3.0,93,0.00,,,0.00,Wunderground v.1.15,2013-06-29 14:15:00,
2013-06-29 10:20:00,64.6,62.5,29.63,East,92,3.0,3.0,93,0.00,,,0.00,Wunderground v.1.15,2013-06-29 14:20:00,
2013-06-29 10:25:00,64.9,62.5,29.63,ESE,113,2.0,3.0,92,0.00,,,0.00,Wunderground v.1.15,2013-06-29 14:25:00,
2013-06-29 10:35:00,65.3,62.6,29.63,ESE,110,2.0,2.0,91,0.00,,,0.00,Wunderground v.1.15,2013-06-29 14:35:00,
2013-06-29 10:40:00,65.5,62.8,29.63,ESE,120,2.0,2.0,91,0.00,,,0.00,Wunderground v.1.15,2013-06-29 14:40:00,
2013-06-29 10:45:00,65.6,62.3,29.63,ESE,122,1.0,2.0,89,0.00,,,0.00,Wunderground v.1.15,2013-06-29 14:45:00,
2013-06-29 10:50:00,65.7,62.7,29.63,ENE,77,1.0,1.0,90,0.00,,,0.00,Wunderground v.1.15,2013-06-29 14:50:00,
2013-06-29 10:55:00,66.2,63.2,29.63,ENE,77,1.0,1.0,90,0.00,,,0.00,Wunderground v.1.15,2013-06-29 14:55:00,
2013-06-29 11:00:00,66.9,63.2,29.63,NNE,25,0.0,0.0,88,0.00,,,0.00,Wunderground v.1.15,2013-06-29 15:00:00,
2013-06-29 11:10:00,68.2,63.9,29.63,South,191,1.0,2.0,86,0.00,,,0.00,Wunderground v.1.15,2013-06-29 15:10:00,
2013-06-29 11:15:00,68.7,64.0,29.63,South,188,2.0,2.0,85,0.00,,,0.00,Wunderground v.1.15,2013-06-29 15:15:00,
2013-06-29 11:20:00,69.1,64.1,29.63,WSW,238,1.0,2.0,84,0.00,,,0.00,Wunderground v.1.15,2013-06-29 15:20:00,
2013-06-29 11:25:00,68.5,63.5,29.63,WNW,287,1.0,2.0,84,0.00,,,0.00,Wunderground v.1.15,2013-06-29 15:25:00,
2013-06-29 11:30:00,68.4,63.7,29.63,SSW,204,1.0,1.0,85,0.00,,,0.00,Wunderground v.1.15,2013-06-29 15:30:00,
2013-06-29 11:40:00,69.3,64.6,29.63,SW,224,2.0,2.0,85,0.00,,,0.00,Wunderground v.1.15,2013-06-29 15:40:00,
2013-06-29 11:45:00,69.4,64.7,29.63,SW,235,2.0,2.0,85,0.00,,,0.00,Wunderground v.1.15,2013-06-29 15:45:00,
2013-06-29 11:50:00,69.5,63.4,29.63,SW,222,1.0,1.0,81,0.00,,,0.00,Wunderground v.1.15,2013-06-29 15:50:00,
2013-06-29 11:55:00,69.7,63.6,29.63,SE,145,1.0,1.0,81,0.00,,,0.00,Wunderground v.1.15,2013-06-29 15:55:00,
2013-06-29 12:00:00,70.3,63.8,29.63,ENE,71,0.0,0.0,80,0.00,,,0.00,Wunderground v.1.15,2013-06-29 16:00:00,
2013-06-29 12:10:00,70.9,63.7,29.63,East,93,3.0,3.0,78,0.00,,,0.00,Wunderground v.1.15,2013-06-29 16:10:00,
2013-06-29 12:15:00,71.5,65.0,29.62,ESE,110,3.0,4.0,80,0.00,,,0.00,Wunderground v.1.15,2013-06-29 16:15:00,
2013-06-29 12:20:00,71.8,64.6,29.62,SSE,156,2.0,2.0,78,0.00,,,0.00,Wunderground v.1.15,2013-06-29 16:20:00,
2013-06-29 12:25:00,72.2,65.3,29.63,ENE,69,2.0,4.0,79,0.00,,,0.00,Wunderground v.1.15,2013-06-29 16:25:00,
2013-06-29 12:30:00,71.7,63.7,29.63,NE,40,3.0,3.0,76,0.00,,,0.00,Wunderground v.1.15,2013-06-29 16:30:00,
2013-06-29 12:35:00,71.4,63.8,29.62,North,10,3.0,3.0,77,0.00,,,0.00,Wunderground v.1.15,2013-06-29 16:35:00,
2013-06-29 12:40:00,71.2,63.6,29.62,NNW,338,3.0,4.0,77,0.00,,,0.00,Wunderground v.1.15,2013-06-29 16:40:00,
2013-06-29 12:45:00,71.1,63.1,29.62,NE,36,3.0,4.0,76,0.00,,,0.00,Wunderground v.1.15,2013-06-29 16:45:00,
2013-06-29 12:50:00,71.4,63.4,29.62,North,352,1.0,1.0,76,0.00,,,0.00,Wunderground v.1.15,2013-06-29 16:50:00,
2013-06-29 12:55:00,71.8,64.2,29.62,East,86,1.0,1.0,77,0.00,,,0.00,Wunderground v.1.15,2013-06-29 16:55:00,
2013-06-29 13:00:00,72.1,64.1,29.62,ESE,123,2.0,2.0,76,0.00,,,0.00,Wunderground v.1.15,2013-06-29 17:00:00,
2013-06-29 13:10:00,72.6,63.1,29.62,ENE,77,2.0,3.0,72,0.00,,,0.00,Wunderground v.1.15,2013-06-29 17:10:00,
2013-06-29 13:15:00,73.5,65.5,29.62,ESE,111,1.0,3.0,76,0.00,,,0.00,Wunderground v.1.15,2013-06-29 17:15:00,
2013-06-29 13:20:00,74.5,65.3,29.62,East,81,2.0,4.0,73,0.00,,,0.00,Wunderground v.1.15,2013-06-29 17:20:00,
2013-06-29 13:25:00,73.8,62.6,29.62,NE,46,3.0,4.0,68,0.00,,,0.00,Wunderground v.1.15,2013-06-29 17:25:00,
2013-06-29 13:30:00,73.2,63.2,29.62,ENE,71,4.0,4.0,71,0.00,,,0.00,Wunderground v.1.15,2013-06-29 17:30:00,
2013-06-29 13:35:00,73.5,62.7,29.62,North,6,4.0,4.0,69,0.00,,,0.00,Wunderground v.1.15,2013-06-29 17:35:00,
2013-06-29 13:40:00,73.1,62.7,29.62,ENE,64,3.0,4.0,70,0.00,,,0.00,Wunderground v.1.15,2013-06-29 17:40:00,
2013-06-29 13:50:00,74.0,64.4,29.62,NE,42,3.0,4.0,72,0.00,,,0.00,Wunderground v.1.15,2013-06-29 17:50:00,
2013-06-29 13:55:00,74.2,63.4,29.62,NE,55,5.0,5.0,69,0.00,,,0.00,Wunderground v.1.15,2013-06-29 17:55:00,
2013-06-29 14:00:00,74.7,62.1,29.62,ENE,65,5.0,5.0,65,0.00,,,0.00,Wunderground v.1.15,2013-06-29 18:00:00,
2013-06-29 14:10:00,76.0,63.8,29.62,WSW,245,2.0,2.0,66,0.00,,,0.00,Wunderground v.1.15,2013-06-29 18:10:00,
2013-06-29 14:20:00,75.6,63.9,29.61,NNW,340,3.0,3.0,67,0.00,,,0.00,Wunderground v.1.15,2013-06-29 18:20:00,
2013-06-29 14:25:00,75.6,62.6,29.61,NNE,33,5.0,5.0,64,0.00,,,0.00,Wunderground v.1.15,2013-06-29 18:25:00,
2013-06-29 14:30:00,75.0,62.4,29.61,NNE,15,4.0,6.0,65,0.00,,,0.00,Wunderground v.1.15,2013-06-29 18:30:00,
2013-06-29 14:35:00,75.0,64.5,29.61,ENE,58,5.0,6.0,70,0.00,,,0.00,Wunderground v.1.15,2013-06-29 18:35:00,
2013-06-29 14:40:00,75.2,63.5,29.61,NE,46,5.0,6.0,67,0.00,,,0.00,Wunderground v.1.15,2013-06-29 18:40:00,
2013-06-29 14:45:00,75.5,64.6,29.61,North,6,4.0,8.0,69,0.00,,,0.00,Wunderground v.1.15,2013-06-29 18:45:00,
2013-06-29 14:55:00,75.3,62.3,29.61,NE,42,6.0,6.0,64,0.00,,,0.00,Wunderground v.1.15,2013-06-29 18:55:00,
2013-06-29 15:00:00,75.9,63.7,29.61,NE,37,5.0,5.0,66,0.00,,,0.00,Wunderground v.1.15,2013-06-29 19:00:00,
2013-06-29 15:10:00,75.6,63.0,29.61,East,85,6.0,6.0,65,0.00,,,0.00,Wunderground v.1.15,2013-06-29 19:10:00,
2013-06-29 15:20:00,75.6,61.7,29.61,East,82,5.0,5.0,62,0.00,,,0.00,Wunderground v.1.15,2013-06-29 19:20:00,
2013-06-29 15:25:00,75.5,62.5,29.61,NE,37,4.0,5.0,64,0.00,,,0.00,Wunderground v.1.15,2013-06-29 19:25:00,
2013-06-29 15:30:00,75.4,62.4,29.61,ENE,66,2.0,2.0,64,0.00,,,0.00,Wunderground v.1.15,2013-06-29 19:30:00,
2013-06-29 15:35:00,75.2,63.1,29.61,NE,45,2.0,3.0,66,0.00,,,0.00,Wunderground v.1.15,2013-06-29 19:35:00,
2013-06-29 15:40:00,74.9,63.2,29.61,NNE,18,3.0,4.0,67,0.00,,,0.00,Wunderground v.1.15,2013-06-29 19:40:00,
2013-06-29 15:45:00,75.1,63.0,29.61,ENE,60,3.0,7.0,66,0.00,,,0.00,Wunderground v.1.15,2013-06-29 19:45:00,
2013-06-29 15:50:00,75.2,63.5,29.61,ENE,58,4.0,4.0,67,0.00,,,0.00,Wunderground v.1.15,2013-06-29 19:50:00,
2013-06-29 16:00:00,75.5,64.2,29.62,ENE,63,4.0,4.0,68,0.00,,,0.00,Wunderground v.1.15,2013-06-29 20:00:00,
2013-06-29 16:10:00,75.4,64.5,29.62,NE,39,5.0,9.0,69,0.00,,,0.00,Wunderground v.1.15,2013-06-29 20:10:00,
2013-06-29 16:15:00,76.0,64.7,29.62,NNE,25,5.0,9.0,68,0.00,,,0.00,Wunderground v.1.15,2013-06-29 20:15:00,
2013-06-29 16:20:00,75.7,63.5,29.62,ENE,57,6.0,6.0,66,0.00,,,0.00,Wunderground v.1.15,2013-06-29 20:20:00,
2013-06-29 16:30:00,74.7,63.0,29.62,ENE,74,5.0,5.0,67,0.00,,,0.00,Wunderground v.1.15,2013-06-29 20:30:00,
2013-06-29 16:35:00,75.0,63.7,29.62,NE,47,5.0,5.0,68,0.00,,,0.00,Wunderground v.1.15,2013-06-29 20:35:00,
2013-06-29 16:40:00,74.9,62.8,29.62,NE,55,4.0,8.0,66,0.00,,,0.00,Wunderground v.1.15,2013-06-29 20:40:00,
2013-06-29 16:45:00,74.4,63.6,29.63,East,84,5.0,8.0,69,0.00,,,0.00,Wunderground v.1.15,2013-06-29 20:45:00,
2013-06-29 16:50:00,73.7,63.7,29.63,NE,50,5.0,5.0,71,0.00,,,0.00,Wunderground v.1.15,2013-06-29 20:50:00,
2013-06-29 16:55:00,72.7,63.9,29.63,NNE,15,6.0,6.0,74,0.00,,,0.00,Wunderground v.1.15,2013-06-29 20:55:00,
2013-06-29 17:00:00,71.8,63.8,29.63,North,354,6.0,10.0,76,0.00,,,0.00,Wunderground v.1.15,2013-06-29 21:00:00,
2013-06-29 17:10:00,71.1,63.5,29.63,NNW,330,4.0,4.0,77,0.00,,,0.00,Wunderground v.1.15,2013-06-29 21:10:00,
2013-06-29 17:15:00,71.1,63.9,29.63,North,353,3.0,5.0,78,0.00,,,0.00,Wunderground v.1.15,2013-06-29 21:15:00,
2013-06-29 17:20:00,71.3,64.1,29.63,North,352,3.0,3.0,78,0.00,,,0.00,Wunderground v.1.15,2013-06-29 21:20:00,
2013-06-29 17:30:00,71.8,64.2,29.63,NNW,336,1.0,2.0,77,0.00,,,0.00,Wunderground v.1.15,2013-06-29 21:30:00,
2013-06-29 17:35:00,72.1,65.2,29.64,ENE,68,1.0,2.0,79,0.00,,,0.00,Wunderground v.1.15,2013-06-29 21:35:00,
2013-06-29 17:40:00,72.3,64.7,29.64,ENE,74,1.0,1.0,77,0.00,,,0.00,Wunderground v.1.15,2013-06-29 21:40:00,
2013-06-29 17:45:00,72.4,64.0,29.64,NE,44,2.0,3.0,75,0.00,,,0.00,Wunderground v.1.15,2013-06-29 21:45:00,
2013-06-29 17:50:00,72.3,63.9,29.64,NE,35,3.0,3.0,75,0.00,,,0.00,Wunderground v.1.15,2013-06-29 21:50:00,
2013-06-29 17:55:00,72.0,63.6,29.64,NE,39,4.0,7.0,75,0.00,,,0.00,Wunderground v.1.15,2013-06-29 21:55:00,
2013-06-29 18:00:00,71.8,63.8,29.65,NNE,18,4.0,6.0,76,0.00,,,0.00,Wunderground v.1.15,2013-06-29 22:00:00,
2013-06-29 18:10:00,71.5,63.5,29.65,East,82,3.0,3.0,76,0.00,,,0.00,Wunderground v.1.15,2013-06-29 22:10:00,
2013-06-29 18:15:00,71.4,63.4,29.65,East,79,2.0,3.0,76,0.00,,,0.00,Wunderground v.1.15,2013-06-29 22:15:00,
2013-06-29 18:20:00,71.4,63.8,29.65,SE,140,1.0,1.0,77,0.00,,,0.00,Wunderground v.1.15,2013-06-29 22:20:00,
2013-06-29 18:25:00,70.4,63.9,29.65,SW,218,2.0,7.0,80,0.00,,,0.00,Wunderground v.1.15,2013-06-29 22:25:00,
2013-06-29 18:30:00,69.0,64.0,29.66,SW,227,5.0,5.0,84,0.00,,,0.00,Wunderground v.1.15,2013-06-29 22:30:00,
2013-06-29 18:40:00,67.6,62.3,29.66,West,264,4.0,6.0,83,0.00,,,0.00,Wunderground v.1.15,2013-06-29 22:40:00,
2013-06-29 18:45:00,67.1,61.8,29.66,WSW,246,5.0,8.0,83,0.00,,,0.00,Wunderground v.1.15,2013-06-29 22:45:00,
2013-06-29 18:50:00,66.8,61.8,29.66,WNW,297,5.0,5.0,84,0.00,,,0.00,Wunderground v.1.15,2013-06-29 22:50:00,
2013-06-29 18:55:00,66.6,62.3,29.66,West,271,4.0,5.0,86,0.00,,,0.00,Wunderground v.1.15,2013-06-29 22:55:00,
2013-06-29 19:00:00,66.4,62.7,29.67,SW,231,3.0,4.0,88,0.00,,,0.01,Wunderground v.1.15,2013-06-29 23:00:00,
2013-06-29 19:10:00,65.0,61.7,29.67,SSE,149,6.0,7.0,89,0.32,,,0.08,Wunderground v.1.15,2013-06-29 23:10:00,
2013-06-29 19:15:00,64.3,61.6,29.68,WSW,250,7.0,7.0,91,0.09,,,0.08,Wunderground v.1.15,2013-06-29 23:15:00,
2013-06-29 19:20:00,63.9,61.5,29.68,SSW,201,5.0,5.0,92,0.05,,,0.08,Wunderground v.1.15,2013-06-29 23:20:00,
2013-06-29 19:25:00,63.7,61.6,29.69,South,170,4.0,5.0,93,0.00,,,0.08,Wunderground v.1.15,2013-06-29 23:25:00,
2013-06-29 19:30:00,63.5,61.7,29.69,SE,128,5.0,5.0,94,0.00,,,0.08,Wunderground v.1.15,2013-06-29 23:30:00,
2013-06-29 19:35:00,63.2,61.4,29.69,SE,142,4.0,5.0,94,0.00,,,0.08,Wunderground v.1.15,2013-06-29 23:35:00,
2013-06-29 19:45:00,63.0,61.5,29.69,SSW,203,3.0,3.0,95,1.59,,,0.15,Wunderground v.1.15,2013-06-29 23:45:00,
2013-06-29 19:50:00,62.9,61.4,29.69,SE,129,3.0,3.0,95,0.34,,,0.20,Wunderground v.1.15,2013-06-29 23:50:00,
2013-06-29 19:55:00,62.7,61.2,29.69,SE,142,3.0,3.0,95,0.19,,,0.21,Wunderground v.1.15,2013-06-29 23:55:00,
2013-06-29 20:00:00,62.7,61.5,29.69,SE,139,3.0,4.0,96,0.09,,,0.22,Wunderground v.1.15,2013-06-30 00:00:00,
2013-06-29 20:10:00,62.3,60.8,29.69,ESE,115,4.0,5.0,95,0.08,,,0.23,Wunderground v.1.15,2013-06-30 00:10:00,
2013-06-29 20:15:00,62.2,60.8,29.69,SSE,156,3.0,5.0,95,0.14,,,0.24,Wunderground v.1.15,2013-06-30 00:15:00,
2013-06-29 20:20:00,62.2,60.8,29.70,ESE,107,1.0,1.0,95,0.11,,,0.25,Wunderground v.1.15,2013-06-30 00:20:00,
2013-06-29 20:25:00,62.2,60.8,29.70,NNW,343,1.0,4.0,95,0.07,,,0.25,Wunderground v.1.15,2013-06-30 00:25:00,
2013-06-29 20:30:00,62.1,60.9,29.71,NNW,345,2.0,4.0,96,0.06,,,0.26,Wunderground v.1.15,2013-06-30 00:30:00,
2013-06-29 20:35:00,62.1,60.7,29.70,NNW,343,3.0,4.0,95,0.10,,,0.27,Wunderground v.1.15,2013-06-30 00:35:00,
2013-06-29 20:40:00,62.2,60.8,29.71,NW,319,2.0,2.0,95,0.60,,,0.29,Wunderground v.1.15,2013-06-30 00:40:00,
2013-06-29 20:45:00,62.1,60.9,29.71,NW,318,3.0,3.0,96,0.47,,,0.35,Wunderground v.1.15,2013-06-30 00:45:00,
2013-06-29 20:50:00,62.1,60.9,29.71,WNW,302,3.0,3.0,96,0.43,,,0.38,Wunderground v.1.15,2013-06-30 00:50:00,
2013-06-29 20:55:00,62.1,60.9,29.71,WNW,298,2.0,3.0,96,0.13,,,0.39,Wunderground v.1.15,2013-06-30 00:55:00,
2013-06-29 21:00:00,62.2,61.0,29.71,WNW,298,1.0,1.0,96,0.06,,,0.39,Wunderground v.1.15,2013-06-30 01:00:00,
2013-06-29 21:05:00,62.3,61.4,29.72,WNW,298,1.0,1.0,97,0.04,,,0.39,Wunderground v.1.15,2013-06-30 01:05:00,
2013-06-29 21:10:00,62.4,61.5,29.72,North,9,0.0,2.0,97,0.00,,,0.39,Wunderground v.1.15,2013-06-30 01:10:00,
2013-06-29 21:20:00,62.6,61.7,29.72,North,10,1.0,1.0,97,0.00,,,0.39,Wunderground v.1.15,2013-06-30 01:20:00,
2013-06-29 21:25:00,62.7,61.8,29.72,North,10,1.0,1.0,97,0.00,,,0.39,Wunderground v.1.15,2013-06-30 01:25:00,
2013-06-29 21:30:00,62.8,61.9,29.72,North,10,1.0,1.0,97,0.00,,,0.39,Wunderground v.1.15,2013-06-30 01:30:00,
2013-06-29 21:35:00,62.8,61.9,29.72,NNE,20,1.0,1.0,97,0.00,,,0.39,Wunderground v.1.15,2013-06-30 01:35:00,
2013-06-29 21:40:00,62.8,61.9,29.72,NNE,12,1.0,1.0,97,0.00,,,0.39,Wunderground v.1.15,2013-06-30 01:40:00,
2013-06-29 21:50:00,62.9,62.0,29.72,NNE,12,0.0,0.0,97,0.00,,,0.39,Wunderground v.1.15,2013-06-30 01:50:00,
2013-06-29 21:55:00,63.1,62.2,29.73,NNE,12,0.0,0.0,97,0.00,,,0.39,Wunderground v.1.15,2013-06-30 01:55:00,
2013-06-29 22:00:00,63.0,62.1,29.73,North,11,0.0,0.0,97,0.00,,,0.39,Wunderground v.1.15,2013-06-30 02:00:00,
2013-06-29 22:10:00,62.9,62.0,29.73,NNE,12,0.0,0.0,97,0.00,,,0.39,Wunderground v.1.15,2013-06-30 02:10:00,
2013-06-29 22:15:00,63.0,62.1,29.74,NNE,12,0.0,0.0,97,0.00,,,0.39,Wunderground v.1.15,2013-06-30 02:15:00,
2013-06-29 22:25:00,63.0,62.1,29.74,NNE,12,0.0,1.0,97,0.00,,,0.39,Wunderground v.1.15,2013-06-30 02:25:00,
2013-06-29 22:30:00,63.0,62.1,29.74,NNW,328,0.0,1.0,97,0.00,,,0.39,Wunderground v.1.15,2013-06-30 02:30:00,
2013-06-29 22:35:00,63.0,62.1,29.74,NW,319,0.0,1.0,97,0.00,,,0.39,Wunderground v.1.15,2013-06-30 02:35:00,
2013-06-29 22:40:00,63.0,62.1,29.75,NW,319,0.0,0.0,97,0.00,,,0.39,Wunderground v.1.15,2013-06-30 02:40:00,
2013-06-29 22:45:00,63.0,62.1,29.75,WSW,256,0.0,0.0,97,0.00,,,0.39,Wunderground v.1.15,2013-06-30 02:45:00,
2013-06-29 22:55:00,63.0,62.4,29.75,WSW,256,0.0,0.0,98,0.00,,,0.39,Wunderground v.1.15,2013-06-30 02:55:00,
2013-06-29 23:00:00,63.1,62.5,29.75,SW,215,0.0,1.0,98,0.00,,,0.39,Wunderground v.1.15,2013-06-30 03:00:00,
2013-06-29 23:10:00,63.1,62.5,29.75,SE,139,0.0,0.0,98,0.00,,,0.39,Wunderground v.1.15,2013-06-30 03:10:00,
2013-06-29 23:15:00,63.2,62.6,29.75,SE,126,0.0,1.0,98,0.00,,,0.39,Wunderground v.1.15,2013-06-30 03:15:00,
2013-06-29 23:20:00,63.2,62.6,29.75,SE,126,0.0,0.0,98,0.00,,,0.39,Wunderground v.1.15,2013-06-30 03:20:00,
2013-06-29 23:30:00,63.2,62.6,29.75,SE,126,0.0,0.0,98,0.00,,,0.39,Wunderground v.1.15,2013-06-30 03:30:00,
2013-06-29 23:35:00,63.2,62.6,29.75,SE,126,0.0,0.0,98,0.00,,,0.39,Wunderground v.1.15,2013-06-30 03:35:00,
2013-06-29 23:40:00,63.2,62.6,29.75,SE,126,0.0,0.0,98,0.00,,,0.39,Wunderground v.1.15,2013-06-30 03:40:00,
2013-06-29 23:45:00,63.2,62.6,29.75,SE,126,0.0,1.0,98,0.00,,,0.39,Wunderground v.1.15,2013-06-30 03:45:00,
2013-06-29 23:50:00,63.2,62.6,29.75,SE,125,0.0,1.0,98,0.00,,,0.39,Wunderground v.1.15,2013-06-30 03:50:00,